Time;durP1;ratioP1;P1;durP2;ratioP2;P2;SDS_P1;SDS_P2;PMS_P1;PMS_P2;Temp;Humidity;BMP_temperature;BMP_pressure;BME280_temperature;BME280_humidity;BME280_pressure;Samples;Min_cycle;Max_cycle;Signal;HPM_P1;HPM_P2
2023/10/08 00:00:49;;;;;;;5.72;3.17;;;18.90;99.90;;;;;;5027695;28;20225;-67
2023/10/08 00:03:17;;;;;;;5.30;2.65;;;19.00;99.90;;;;;;5016420;28;20187;-66
2023/10/08 00:05:45;;;;;;;5.63;2.78;;;19.00;99.90;;;;;;5032613;28;20314;-66
2023/10/08 00:08:11;;;;;;;4.15;2.80;;;19.10;99.90;;;;;;5025575;28;20267;-67
2023/10/08 00:10:41;;;;;;;5.05;3.10;;;19.10;99.90;;;;;;5035992;28;20204;-67
2023/10/08 00:13:16;;;;;;;5.10;3.05;;;19.10;99.90;;;;;;5035476;28;20336;-67
2023/10/08 00:15:52;;;;;;;3.92;2.90;;;19.20;99.90;;;;;;5035485;28;20201;-67
2023/10/08 00:18:23;;;;;;;5.05;3.70;;;19.10;99.90;;;;;;5035912;28;20220;-77
2023/10/08 00:20:58;;;;;;;6.00;3.58;;;19.10;99.90;;;;;;5035346;28;20248;-77
2023/10/08 00:23:27;;;;;;;5.85;3.17;;;19.10;99.90;;;;;;5035196;28;20260;-78
2023/10/08 00:25:54;;;;;;;7.50;3.97;;;19.10;99.90;;;;;;5025377;28;20267;-77
2023/10/08 00:28:24;;;;;;;4.90;3.38;;;19.00;99.90;;;;;;5034901;28;20170;-76
2023/10/08 00:30:53;;;;;;;5.13;2.75;;;19.00;99.90;;;;;;5035054;28;20197;-75
2023/10/08 00:33:19;;;;;;;5.93;3.33;;;19.00;99.90;;;;;;5035101;28;20178;-75
2023/10/08 00:35:44;;;;;;;4.93;2.97;;;19.00;99.90;;;;;;5035108;28;20273;-78
2023/10/08 00:38:20;;;;;;;4.85;2.88;;;18.90;99.90;;;;;;5032884;28;20272;-76
2023/10/08 00:40:46;;;;;;;4.30;2.70;;;18.80;99.90;;;;;;5031681;28;20184;-79
2023/10/08 00:43:34;;;;;;;5.50;2.80;;;18.80;99.90;;;;;;5034911;28;20268;-76
2023/10/08 00:46:16;;;;;;;4.57;2.45;;;18.70;99.90;;;;;;5031303;28;20190;-77
2023/10/08 00:48:44;;;;;;;4.15;2.83;;;18.70;99.90;;;;;;5015146;28;20158;-75
2023/10/08 00:51:59;;;;;;;4.70;2.97;;;18.60;99.90;;;;;;5046026;28;20178;-77
2023/10/08 00:54:10;;;;;;;6.03;2.70;;;18.50;99.90;;;;;;5017482;28;20472;-77
2023/10/08 00:57:20;;;;;;;4.18;2.72;;;18.40;99.90;;;;;;5031140;28;20249;-78
2023/10/08 00:59:25;;;;;;;4.43;2.83;;;18.40;99.90;;;;;;5016519;28;20190;-76
2023/10/08 01:01:59;;;;;;;4.55;2.55;;;18.40;99.90;;;;;;5026113;28;20217;-73
2023/10/08 01:04:28;;;;;;;4.97;2.65;;;18.40;99.90;;;;;;5017257;28;20162;-77
2023/10/08 01:07:01;;;;;;;4.03;2.80;;;18.30;99.90;;;;;;5029840;28;20277;-76
2023/10/08 01:09:35;;;;;;;4.70;2.97;;;18.30;99.90;;;;;;5030572;28;20216;-77
2023/10/08 01:15:16;;;;;;;4.55;2.88;;;18.30;99.90;;;;;;5028599;28;20210;-74
2023/10/08 01:17:51;;;;;;;4.00;2.53;;;18.20;99.90;;;;;;5020164;28;20174;-77
2023/10/08 01:20:33;;;;;;;4.18;2.50;;;18.20;99.90;;;;;;5019533;28;20177;-76
2023/10/08 01:23:10;;;;;;;4.22;2.72;;;18.10;99.90;;;;;;5022111;28;20206;-75
2023/10/08 01:25:57;;;;;;;5.55;2.70;;;18.00;99.90;;;;;;5033809;28;20162;-77
2023/10/08 01:28:28;;;;;;;4.35;2.80;;;18.00;99.90;;;;;;5031669;28;20230;-78
2023/10/08 01:30:57;;;;;;;4.68;2.60;;;18.00;99.90;;;;;;5034140;28;20181;-77
2023/10/08 01:33:28;;;;;;;5.25;2.88;;;17.90;99.90;;;;;;5026789;28;20243;-78
2023/10/08 01:36:03;;;;;;;4.07;2.80;;;17.90;99.90;;;;;;5029528;28;20172;-77
2023/10/08 01:38:32;;;;;;;5.07;2.72;;;17.80;99.90;;;;;;5034130;28;20197;-77
2023/10/08 01:41:05;;;;;;;4.50;3.10;;;17.80;99.90;;;;;;5034401;28;20182;-76
2023/10/08 01:43:30;;;;;;;4.10;2.58;;;17.80;99.90;;;;;;5034213;28;20205;-77
2023/10/08 01:45:56;;;;;;;4.43;2.83;;;17.70;99.90;;;;;;5028838;28;20226;-75
2023/10/08 01:48:37;;;;;;;5.90;3.00;;;17.70;99.90;;;;;;5033228;28;20170;-77
2023/10/08 01:51:08;;;;;;;6.72;3.17;;;17.60;99.90;;;;;;5034378;28;20248;-77
2023/10/08 01:53:38;;;;;;;3.75;2.85;;;17.60;99.90;;;;;;5026774;28;20167;-76
2023/10/08 01:56:04;;;;;;;6.30;3.30;;;17.50;99.90;;;;;;5028749;28;20194;-76
2023/10/08 01:58:30;;;;;;;4.55;3.05;;;17.40;99.90;;;;;;5033294;28;20233;-77
2023/10/08 02:01:00;;;;;;;5.38;3.20;;;17.40;99.90;;;;;;5032138;28;20186;-78
2023/10/08 02:03:27;;;;;;;4.50;3.20;;;17.40;99.90;;;;;;5033982;28;20273;-77
2023/10/08 02:05:59;;;;;;;8.20;3.50;;;17.30;99.90;;;;;;5019365;28;20197;-76
2023/10/08 02:08:27;;;;;;;4.18;3.17;;;17.30;99.90;;;;;;5025224;28;20170;-77
2023/10/08 02:10:52;;;;;;;5.35;3.35;;;17.30;99.90;;;;;;5034114;28;20208;-77
2023/10/08 02:13:21;;;;;;;6.13;3.47;;;17.20;99.90;;;;;;5034242;28;20178;-78
2023/10/08 02:15:53;;;;;;;4.53;3.30;;;17.10;99.90;;;;;;5034273;28;20190;-78
2023/10/08 02:18:19;;;;;;;4.57;3.03;;;17.10;99.90;;;;;;5034471;28;20194;-77
2023/10/08 02:20:48;;;;;;;4.97;3.30;;;17.10;99.90;;;;;;5036637;28;20178;-76
2023/10/08 02:23:17;;;;;;;4.15;3.20;;;17.00;99.90;;;;;;5037391;28;20213;-76
2023/10/08 02:25:46;;;;;;;4.43;2.92;;;17.00;99.90;;;;;;5037784;28;20170;-75
2023/10/08 02:28:20;;;;;;;5.80;3.38;;;17.00;99.90;;;;;;5052051;28;20186;-78
2023/10/08 02:30:48;;;;;;;4.72;3.20;;;16.90;99.90;;;;;;5037642;28;20197;-78
2023/10/08 02:33:16;;;;;;;4.82;3.17;;;16.90;99.90;;;;;;5037511;28;20174;-76
2023/10/08 02:35:43;;;;;;;5.72;3.17;;;16.80;99.90;;;;;;5037715;28;20568;-76
2023/10/08 02:38:12;;;;;;;5.55;3.13;;;16.80;99.90;;;;;;5036096;28;20528;-73
2023/10/08 02:40:44;;;;;;;4.75;3.10;;;16.80;99.90;;;;;;5034427;28;20453;-77
2023/10/08 02:43:15;;;;;;;4.93;3.25;;;16.70;99.90;;;;;;5036692;28;20280;-77
2023/10/08 02:45:47;;;;;;;4.47;3.00;;;16.80;99.90;;;;;;5024386;28;20167;-77
2023/10/08 02:48:13;;;;;;;4.45;3.03;;;16.70;99.90;;;;;;5017299;28;20285;-78
2023/10/08 02:50:44;;;;;;;5.15;2.90;;;16.70;99.90;;;;;;5045269;28;20217;-77
2023/10/08 02:53:17;;;;;;;6.18;3.10;;;16.60;99.90;;;;;;5027520;28;20385;-76
2023/10/08 02:55:46;;;;;;;3.72;2.85;;;16.60;99.90;;;;;;5030329;28;20175;-75
2023/10/08 02:58:18;;;;;;;5.57;2.80;;;16.60;99.90;;;;;;5017168;28;20183;-77
2023/10/08 03:00:48;;;;;;;5.05;3.00;;;16.50;99.90;;;;;;5029694;28;20198;-78
2023/10/08 03:03:15;;;;;;;4.82;2.85;;;16.60;99.90;;;;;;5041001;28;20221;-77
2023/10/08 03:05:48;;;;;;;5.25;3.20;;;16.60;99.90;;;;;;5033058;28;20390;-75
2023/10/08 03:08:19;;;;;;;6.20;3.22;;;16.60;99.90;;;;;;5017107;28;20242;-78
2023/10/08 03:10:45;;;;;;;4.90;3.15;;;16.60;99.90;;;;;;5032543;28;20178;-78
2023/10/08 03:13:12;;;;;;;4.28;3.15;;;16.60;99.90;;;;;;5025648;28;20288;-77
2023/10/08 03:15:46;;;;;;;6.15;3.25;;;16.60;99.90;;;;;;5025907;28;20166;-77
2023/10/08 03:18:14;;;;;;;5.20;3.17;;;16.60;99.90;;;;;;5024305;28;20191;-77
2023/10/08 03:20:46;;;;;;;5.65;3.60;;;16.60;99.90;;;;;;5034906;28;20255;-75
2023/10/08 03:23:34;;;;;;;4.82;3.45;;;16.60;99.90;;;;;;5033479;28;20264;-77
2023/10/08 03:26:10;;;;;;;6.00;3.20;;;16.60;99.90;;;;;;5035782;28;20204;-77
2023/10/08 03:28:41;;;;;;;4.57;2.88;;;16.70;99.90;;;;;;5027836;28;20201;-78
2023/10/08 03:31:17;;;;;;;5.22;2.75;;;16.70;99.90;;;;;;5027938;28;20181;-75
2023/10/08 03:33:48;;;;;;;5.07;3.30;;;16.70;99.90;;;;;;5035676;28;20208;-77
2023/10/08 03:36:20;;;;;;;5.15;3.30;;;16.70;99.90;;;;;;5035355;28;20256;-77
2023/10/08 03:38:52;;;;;;;5.32;3.50;;;16.80;99.90;;;;;;5032103;28;20213;-75
2023/10/08 03:41:30;;;;;;;4.03;2.83;;;16.80;99.90;;;;;;5020491;28;20202;-77
2023/10/08 03:44:05;;;;;;;4.70;3.08;;;16.80;99.90;;;;;;5031466;28;20320;-76
2023/10/08 03:46:32;;;;;;;4.93;3.33;;;16.80;99.90;;;;;;5023643;28;20191;-77
2023/10/08 03:49:04;;;;;;;4.85;3.30;;;16.90;99.90;;;;;;5043231;28;20272;-77
2023/10/08 03:51:39;;;;;;;4.90;3.20;;;16.90;99.90;;;;;;5034971;28;20282;-75
2023/10/08 03:54:18;;;;;;;6.00;3.47;;;16.90;99.90;;;;;;5031149;28;20272;-75
2023/10/08 03:56:45;;;;;;;4.55;3.00;;;16.90;99.90;;;;;;5034642;28;20200;-75
2023/10/08 03:59:40;;;;;;;5.70;3.28;;;16.90;99.90;;;;;;5032501;28;20188;-76
2023/10/08 04:02:13;;;;;;;4.55;3.00;;;16.90;99.90;;;;;;5031820;28;20227;-74
2023/10/08 04:04:49;;;;;;;5.00;3.22;;;16.90;99.90;;;;;;5034049;28;20206;-75
2023/10/08 04:07:36;;;;;;;4.85;3.20;;;16.80;99.90;;;;;;5024204;28;20185;-78
2023/10/08 04:12:43;;;;;;;4.63;3.15;;;16.80;99.90;;;;;;5036345;28;20150;-78
2023/10/08 04:15:12;;;;;;;4.25;2.80;;;16.90;99.90;;;;;;5031669;28;20284;-77
2023/10/08 04:17:43;;;;;;;3.80;2.80;;;16.80;99.90;;;;;;5015300;28;20175;-76
2023/10/08 04:23:01;;;;;;;3.95;3.00;;;16.80;99.90;;;;;;5026005;28;20351;-78
2023/10/08 04:25:30;;;;;;;4.13;2.92;;;16.80;99.90;;;;;;5035270;28;20240;-78
2023/10/08 04:28:00;;;;;;;5.18;3.38;;;16.80;99.90;;;;;;5034877;28;20198;-77
2023/10/08 04:30:32;;;;;;;5.38;3.17;;;16.80;99.90;;;;;;5028759;28;20193;-75
2023/10/08 04:33:08;;;;;;;4.30;3.10;;;16.80;99.90;;;;;;5034782;28;20263;-78
2023/10/08 04:35:47;;;;;;;5.35;3.22;;;16.80;99.90;;;;;;5035091;28;20235;-79
2023/10/08 04:38:18;;;;;;;5.00;3.50;;;16.80;99.90;;;;;;5025571;28;20260;-76
2023/10/08 04:40:53;;;;;;;4.85;3.13;;;16.80;99.90;;;;;;5032364;28;20193;-78
2023/10/08 04:43:30;;;;;;;5.70;3.15;;;16.80;99.90;;;;;;5028038;28;20284;-77
2023/10/08 04:45:56;;;;;;;4.45;3.05;;;16.80;99.90;;;;;;5024883;28;20243;-78
2023/10/08 04:48:29;;;;;;;4.85;2.78;;;16.80;99.90;;;;;;5034274;28;20476;-77
2023/10/08 04:51:03;;;;;;;6.60;3.63;;;16.80;99.90;;;;;;5021282;28;20185;-78
2023/10/08 04:53:36;;;;;;;5.53;3.40;;;16.80;99.90;;;;;;5022176;28;20189;-78
2023/10/08 04:56:06;;;;;;;5.47;3.60;;;16.80;99.90;;;;;;5032869;28;20185;-78
2023/10/08 04:58:40;;;;;;;6.13;3.10;;;16.70;99.90;;;;;;5031103;28;20246;-77
2023/10/08 05:01:17;;;;;;;5.88;3.08;;;16.70;99.90;;;;;;5030173;28;20170;-78
2023/10/08 05:09:12;;;;;;;4.53;3.20;;;16.70;99.90;;;;;;5025912;28;20199;-77
2023/10/08 05:12:08;;;;;;;3.70;2.80;;;16.70;99.90;;;;;;5033652;28;20188;-75
2023/10/08 05:22:40;;;;;;;4.22;3.00;;;16.80;99.90;;;;;;5029991;28;20216;-78
2023/10/08 05:25:57;;;;;;;5.00;2.78;;;16.80;99.90;;;;;;5034558;28;20268;-77
2023/10/08 05:30:38;;;;;;;4.97;3.33;;;16.70;99.90;;;;;;5035243;28;20162;-76
2023/10/08 05:38:22;;;;;;;5.78;3.00;;;16.70;99.90;;;;;;5031171;28;20193;-76
2023/10/08 05:52:13;;;;;;;6.28;3.88;;;16.70;99.90;;;;;;5026659;28;20237;-78
2023/10/08 06:07:56;;;;;;;11.88;8.27;;;16.60;99.90;;;;;;5038339;28;20234;-75
2023/10/08 06:13:02;;;;;;;14.23;10.65;;;16.50;99.90;;;;;;5024810;28;20186;-76
2023/10/08 06:15:44;;;;;;;9.48;7.53;;;16.50;99.90;;;;;;5036797;28;20209;-77
2023/10/08 06:18:15;;;;;;;10.30;6.68;;;16.50;99.90;;;;;;5031850;28;20203;-76
2023/10/08 06:20:43;;;;;;;6.95;4.95;;;16.50;99.90;;;;;;5033373;28;20241;-77
2023/10/08 06:23:17;;;;;;;5.97;4.10;;;16.50;99.90;;;;;;5033258;28;20292;-75
2023/10/08 06:25:46;;;;;;;7.35;4.32;;;16.50;99.90;;;;;;5037299;28;20189;-78
2023/10/08 06:28:19;;;;;;;5.40;3.45;;;16.50;99.90;;;;;;5037528;28;20277;-77
2023/10/08 06:30:53;;;;;;;5.05;3.65;;;16.50;99.90;;;;;;5052122;28;20184;-77
2023/10/08 06:33:30;;;;;;;4.55;3.13;;;16.60;99.90;;;;;;5039369;28;20198;-76
2023/10/08 06:36:01;;;;;;;6.15;3.70;;;16.60;99.90;;;;;;5017671;28;20163;-78
2023/10/08 06:38:33;;;;;;;4.13;3.30;;;16.60;99.90;;;;;;5032234;28;20286;-77
2023/10/08 06:41:15;;;;;;;6.88;5.60;;;16.60;99.90;;;;;;5040952;28;20205;-77
2023/10/08 06:44:13;;;;;;;5.70;4.57;;;16.70;99.90;;;;;;5036998;28;20201;-77
2023/10/08 06:46:42;;;;;;;7.88;5.18;;;16.70;99.90;;;;;;5037224;28;20178;-79
2023/10/08 06:49:12;;;;;;;6.05;3.75;;;16.80;99.90;;;;;;5037140;28;20393;-75
2023/10/08 06:51:38;;;;;;;7.65;3.35;;;16.80;99.90;;;;;;5036843;28;20238;-76
2023/10/08 06:54:10;;;;;;;6.75;3.58;;;16.90;99.90;;;;;;5036223;28;20182;-77
2023/10/08 06:56:38;;;;;;;4.18;3.10;;;16.90;99.90;;;;;;5053470;28;20174;-78
2023/10/08 06:59:05;;;;;;;5.90;3.22;;;16.90;99.90;;;;;;5024318;28;20202;-78
2023/10/08 07:01:38;;;;;;;4.75;3.00;;;17.00;99.90;;;;;;5034532;28;20214;-76
2023/10/08 07:04:12;;;;;;;5.13;2.63;;;17.00;99.90;;;;;;5035322;28;20277;-77
2023/10/08 07:06:39;;;;;;;3.95;2.80;;;17.20;99.90;;;;;;5034906;28;20178;-76
2023/10/08 07:09:06;;;;;;;5.40;3.03;;;17.20;99.90;;;;;;5036002;28;20277;-76
2023/10/08 07:11:35;;;;;;;5.85;3.15;;;17.20;99.90;;;;;;5033851;28;20182;-75
2023/10/08 07:14:01;;;;;;;5.18;2.75;;;17.20;99.90;;;;;;5026721;28;20197;-78
2023/10/08 07:16:28;;;;;;;6.10;3.03;;;17.30;99.90;;;;;;5038504;28;20195;-78
2023/10/08 07:19:01;;;;;;;5.38;2.95;;;17.30;99.90;;;;;;5027605;28;20205;-78
2023/10/08 07:21:37;;;;;;;5.07;2.95;;;17.50;99.90;;;;;;5032651;28;20213;-78
2023/10/08 07:24:08;;;;;;;4.60;3.08;;;17.50;99.90;;;;;;5035071;28;20200;-78
2023/10/08 07:26:37;;;;;;;4.50;2.90;;;17.60;99.90;;;;;;5019963;28;20243;-78
2023/10/08 07:29:13;;;;;;;4.18;2.78;;;17.70;99.90;;;;;;5034995;28;20468;-78
2023/10/08 07:31:41;;;;;;;4.03;2.90;;;17.70;99.90;;;;;;5035688;28;20181;-78
2023/10/08 07:34:15;;;;;;;8.50;5.18;;;17.80;99.90;;;;;;5035172;28;20243;-78
2023/10/08 07:36:43;;;;;;;5.28;3.40;;;17.90;99.90;;;;;;5034306;28;20202;-79
2023/10/08 07:39:22;;;;;;;4.60;3.20;;;18.00;99.90;;;;;;5035029;28;20185;-78
2023/10/08 07:41:49;;;;;;;4.78;3.33;;;18.00;99.90;;;;;;5029183;28;20394;-77
2023/10/08 07:44:15;;;;;;;4.45;3.15;;;18.10;99.90;;;;;;5030874;28;20174;-72
2023/10/08 07:46:44;;;;;;;7.45;3.47;;;18.10;99.90;;;;;;5031288;28;20270;-76
2023/10/08 07:49:14;;;;;;;5.95;3.10;;;18.20;99.90;;;;;;5029419;28;20194;-76
2023/10/08 07:51:40;;;;;;;5.22;3.05;;;18.20;99.90;;;;;;5032335;28;20194;-78
2023/10/08 07:54:16;;;;;;;5.15;3.10;;;18.30;99.90;;;;;;5026466;28;20265;-78
2023/10/08 07:56:42;;;;;;;6.22;3.10;;;18.30;99.90;;;;;;5027487;28;20178;-79
2023/10/08 07:59:14;;;;;;;6.55;3.15;;;18.40;99.90;;;;;;5026483;28;20234;-79
2023/10/08 08:01:42;;;;;;;4.18;2.85;;;18.40;99.90;;;;;;5021265;28;20202;-79
2023/10/08 08:04:11;;;;;;;5.05;3.03;;;18.50;99.90;;;;;;5031372;28;20177;-78
2023/10/08 08:06:37;;;;;;;4.13;2.75;;;18.50;99.90;;;;;;5033377;28;20170;-78
2023/10/08 08:09:17;;;;;;;5.15;2.90;;;18.60;99.90;;;;;;5032608;28;20189;-79
2023/10/08 08:11:45;;;;;;;4.38;3.10;;;18.70;99.90;;;;;;5027607;28;20209;-78
2023/10/08 08:14:16;;;;;;;4.32;2.92;;;18.80;99.90;;;;;;5031311;28;20195;-77
2023/10/08 08:16:48;;;;;;;3.53;2.42;;;18.90;99.90;;;;;;5034181;28;20178;-79
2023/10/08 08:19:24;;;;;;;4.85;3.22;;;19.00;99.90;;;;;;5035796;28;20208;-79
2023/10/08 08:21:52;;;;;;;4.45;2.78;;;19.00;99.90;;;;;;5029292;28;20210;-79
2023/10/08 08:24:28;;;;;;;5.10;2.60;;;19.10;99.90;;;;;;5042410;28;20182;-78
2023/10/08 08:27:07;;;;;;;5.38;2.97;;;19.20;99.90;;;;;;5035049;28;20193;-76
2023/10/08 08:29:48;;;;;;;4.82;3.08;;;19.30;99.90;;;;;;5026682;28;20174;-80
2023/10/08 08:32:21;;;;;;;5.63;3.78;;;19.40;99.90;;;;;;5018771;28;20221;-79
2023/10/08 08:34:50;;;;;;;6.40;4.22;;;19.50;99.90;;;;;;5030904;28;20188;-79
2023/10/08 08:37:16;;;;;;;5.38;3.38;;;19.60;99.90;;;;;;5034078;28;20198;-79
2023/10/08 08:39:42;;;;;;;6.93;3.10;;;19.70;99.90;;;;;;5035346;28;20275;-78
2023/10/08 08:42:08;;;;;;;6.03;2.95;;;19.90;99.90;;;;;;5034318;28;20221;-79
2023/10/08 08:44:45;;;;;;;4.80;2.80;;;19.90;99.90;;;;;;5032868;28;20205;-79
2023/10/08 08:47:17;;;;;;;4.55;3.00;;;20.00;99.90;;;;;;5031490;28;20197;-67
2023/10/08 08:49:45;;;;;;;5.45;3.17;;;20.10;99.90;;;;;;5034770;28;20184;-66
2023/10/08 08:52:12;;;;;;;5.22;3.00;;;20.20;99.90;;;;;;5048428;28;20198;-66
2023/10/08 08:54:38;;;;;;;4.22;3.28;;;20.30;99.90;;;;;;5049663;28;20175;-66
2023/10/08 08:57:06;;;;;;;4.60;2.88;;;20.40;99.90;;;;;;5034950;28;20222;-66
2023/10/08 09:00:00;;;;;;;6.28;3.03;;;20.50;99.90;;;;;;5031734;28;20174;-66
2023/10/08 09:02:35;;;;;;;5.43;2.65;;;20.60;99.90;;;;;;5016708;28;20225;-67
2023/10/08 09:05:12;;;;;;;6.38;4.60;;;20.60;99.90;;;;;;5027345;28;20247;-66
2023/10/08 09:08:02;;;;;;;7.32;4.03;;;20.70;99.90;;;;;;5031422;28;20178;-67
2023/10/08 09:10:29;;;;;;;5.85;3.25;;;20.80;99.90;;;;;;5022239;28;20186;-67
2023/10/08 09:13:01;;;;;;;4.93;3.10;;;20.80;99.90;;;;;;5024732;28;20174;-67
2023/10/08 09:15:29;;;;;;;5.22;3.22;;;20.90;99.90;;;;;;5035021;28;20243;-67
2023/10/08 09:17:56;;;;;;;6.15;3.20;;;20.90;99.90;;;;;;5030482;28;20203;-67
2023/10/08 09:20:22;;;;;;;5.00;3.05;;;21.00;99.90;;;;;;5035018;28;20261;-67
2023/10/08 09:23:07;;;;;;;6.45;3.58;;;21.10;99.90;;;;;;5023339;28;20229;-68
2023/10/08 09:25:36;;;;;;;5.45;3.00;;;21.40;99.90;;;;;;5022963;28;20201;-67
2023/10/08 09:28:06;;;;;;;6.10;2.70;;;21.80;99.90;;;;;;5035061;28;20177;-67
2023/10/08 09:30:37;;;;;;;5.53;2.70;;;22.10;99.90;;;;;;5032824;28;20263;-67
2023/10/08 09:33:09;;;;;;;4.93;3.03;;;22.40;99.90;;;;;;5038961;28;20196;-67
2023/10/08 09:35:36;;;;;;;6.80;2.95;;;22.50;99.90;;;;;;5038058;28;20194;-67
2023/10/08 09:38:08;;;;;;;6.53;3.08;;;22.70;99.90;;;;;;5037981;28;20339;-67
2023/10/08 09:40:37;;;;;;;5.40;3.00;;;23.10;99.90;;;;;;5055096;28;20249;-68
2023/10/08 09:43:04;;;;;;;4.40;3.10;;;23.40;99.90;;;;;;5038369;28;20214;-68
2023/10/08 09:45:33;;;;;;;6.72;3.63;;;23.80;99.90;;;;;;5038451;28;20185;-66
2023/10/08 09:47:59;;;;;;;6.95;3.33;;;24.10;99.90;;;;;;5038371;28;20178;-69
2023/10/08 09:50:32;;;;;;;8.80;3.97;;;24.40;99.90;;;;;;5031536;28;20260;-70
2023/10/08 09:53:25;;;;;;;5.00;3.13;;;24.70;99.90;;;;;;5029306;28;20805;-69
2023/10/08 09:55:56;;;;;;;5.30;3.17;;;24.80;99.90;;;;;;5037976;28;20193;-69
2023/10/08 09:58:24;;;;;;;6.50;3.80;;;25.00;99.90;;;;;;5037908;28;20174;-69
2023/10/08 10:00:51;;;;;;;6.13;4.00;;;25.20;99.90;;;;;;5034390;28;20240;-66
2023/10/08 10:03:25;;;;;;;6.68;3.70;;;25.30;99.90;;;;;;5028082;28;20206;-67
2023/10/08 10:05:51;;;;;;;6.90;4.88;;;25.30;99.90;;;;;;5029446;28;20217;-67
2023/10/08 10:08:24;;;;;;;6.95;4.78;;;25.30;99.90;;;;;;5036301;28;20262;-66
2023/10/08 10:11:01;;;;;;;8.32;4.20;;;25.40;99.90;;;;;;5036050;28;20184;-67
2023/10/08 10:13:38;;;;;;;6.47;4.65;;;25.50;99.90;;;;;;5033717;28;20170;-67
2023/10/08 10:16:07;;;;;;;6.63;3.95;;;25.50;99.90;;;;;;5022348;28;20383;-67
2023/10/08 10:18:35;;;;;;;6.53;3.70;;;25.50;99.90;;;;;;5028747;28;20187;-67
2023/10/08 10:21:13;;;;;;;4.65;3.60;;;25.70;99.90;;;;;;5037805;28;20484;-69
2023/10/08 10:23:45;;;;;;;7.43;3.45;;;25.80;99.90;;;;;;5034172;28;20190;-68
2023/10/08 10:26:33;;;;;;;6.05;3.55;;;25.90;99.90;;;;;;5037086;28;20178;-67
2023/10/08 10:29:14;;;;;;;5.63;3.00;;;26.00;99.90;;;;;;5037415;28;20218;-67
2023/10/08 10:31:46;;;;;;;6.15;3.20;;;26.00;99.90;;;;;;5026040;28;20185;-68
2023/10/08 10:34:15;;;;;;;6.43;3.25;;;26.00;99.90;;;;;;5037042;28;20162;-67
2023/10/08 10:36:43;;;;;;;6.50;3.72;;;25.90;99.90;;;;;;5036912;28;20178;-67
2023/10/08 10:39:16;;;;;;;7.88;3.80;;;25.90;99.90;;;;;;5033200;28;20210;-67
2023/10/08 10:41:46;;;;;;;9.00;3.53;;;25.90;99.90;;;;;;5016825;28;20213;-66
2023/10/08 10:44:23;;;;;;;7.30;3.40;;;26.00;99.90;;;;;;5024726;28;20178;-67
2023/10/08 10:46:52;;;;;;;5.80;3.70;;;26.00;99.90;;;;;;5017679;28;20171;-67
2023/10/08 10:49:36;;;;;;;6.13;3.30;;;26.00;99.90;;;;;;5032992;28;20216;-66
2023/10/08 10:52:05;;;;;;;6.78;3.83;;;25.90;99.90;;;;;;5017346;28;20205;-66
2023/10/08 10:54:38;;;;;;;17.33;3.70;;;25.90;99.90;;;;;;5027919;28;20182;-66
2023/10/08 10:57:18;;;;;;;6.00;3.42;;;25.90;99.90;;;;;;5036766;28;20182;-66
2023/10/08 10:59:53;;;;;;;8.30;3.70;;;26.00;99.90;;;;;;5017411;28;20248;-65
2023/10/08 11:02:30;;;;;;;6.38;3.55;;;26.00;99.90;;;;;;5016854;28;20252;-65
2023/10/08 11:05:07;;;;;;;6.57;3.53;;;26.10;99.90;;;;;;5024097;28;20247;-65
2023/10/08 11:07:37;;;;;;;8.27;4.53;;;26.20;99.90;;;;;;5036373;28;20185;-66
2023/10/08 11:10:09;;;;;;;6.57;4.32;;;26.30;99.90;;;;;;5033184;28;20198;-67
2023/10/08 11:12:46;;;;;;;6.20;3.70;;;26.30;99.90;;;;;;5016334;28;20174;-66
2023/10/08 11:15:17;;;;;;;6.00;3.60;;;26.40;99.90;;;;;;5033370;28;20178;-66
2023/10/08 11:17:47;;;;;;;6.68;3.78;;;26.50;99.90;;;;;;5048634;28;20190;-66
2023/10/08 11:20:28;;;;;;;7.88;3.78;;;26.50;99.90;;;;;;5036225;28;20170;-66
2023/10/08 11:22:54;;;;;;;6.70;3.65;;;26.60;99.90;;;;;;5027976;28;20213;-67
2023/10/08 11:25:30;;;;;;;6.10;3.80;;;26.70;99.90;;;;;;5035982;28;20264;-66
2023/10/08 11:28:08;;;;;;;8.00;3.80;;;26.70;99.90;;;;;;5035970;28;20196;-67
2023/10/08 11:30:40;;;;;;;8.02;4.60;;;26.70;99.90;;;;;;5032830;28;20213;-67
2023/10/08 11:33:06;;;;;;;9.50;6.18;;;26.80;99.90;;;;;;5016288;28;20174;-67
2023/10/08 11:35:33;;;;;;;10.40;5.18;;;26.80;99.90;;;;;;5017119;28;20292;-67
2023/10/08 11:38:03;;;;;;;9.32;4.93;;;26.90;99.90;;;;;;5021110;28;20283;-67
2023/10/08 11:40:48;;;;;;;8.93;4.22;;;27.00;99.90;;;;;;5036368;28;20181;-66
2023/10/08 11:43:17;;;;;;;6.85;3.72;;;27.00;99.90;;;;;;5032101;28;20213;-66
2023/10/08 11:45:50;;;;;;;5.85;3.67;;;27.10;99.90;;;;;;5024048;28;20185;-67
2023/10/08 11:48:28;;;;;;;7.95;4.35;;;27.10;99.90;;;;;;5035617;28;20163;-67
2023/10/08 11:50:57;;;;;;;6.10;3.78;;;27.00;99.90;;;;;;5034232;28;20240;-67
2023/10/08 11:53:24;;;;;;;6.93;3.75;;;27.00;99.90;;;;;;5035096;28;20173;-66
2023/10/08 11:55:56;;;;;;;8.30;3.80;;;27.00;99.90;;;;;;5035325;28;20219;-66
2023/10/08 11:58:35;;;;;;;7.97;4.00;;;27.00;99.90;;;;;;5035348;28;20202;-66
2023/10/08 12:01:03;;;;;;;6.18;3.85;;;27.00;99.90;;;;;;5016143;28;20214;-66
2023/10/08 12:03:29;;;;;;;7.97;4.50;;;27.10;99.90;;;;;;5035591;28;20233;-66
2023/10/08 12:06:00;;;;;;;7.18;3.72;;;27.10;99.90;;;;;;5035965;28;20174;-67
2023/10/08 12:08:28;;;;;;;7.30;4.07;;;27.10;99.90;;;;;;5034661;28;20178;-66
2023/10/08 12:10:54;;;;;;;10.00;4.45;;;27.10;99.90;;;;;;5035687;28;20198;-67
2023/10/08 12:13:28;;;;;;;6.40;3.67;;;27.10;99.90;;;;;;5035418;28;20267;-66
2023/10/08 12:16:06;;;;;;;8.07;4.20;;;27.10;99.90;;;;;;5035336;28;20170;-65
2023/10/08 12:18:39;;;;;;;7.70;4.00;;;27.20;99.90;;;;;;5022289;28;20224;-66
2023/10/08 12:21:10;;;;;;;7.72;4.25;;;27.20;99.90;;;;;;5034896;28;20440;-66
2023/10/08 12:23:37;;;;;;;9.00;5.00;;;27.30;99.90;;;;;;5035402;28;20232;-66
2023/10/08 12:26:03;;;;;;;7.72;4.47;;;27.40;99.90;;;;;;5034740;28;20256;-66
2023/10/08 12:28:29;;;;;;;9.45;4.90;;;27.40;99.90;;;;;;5035314;28;20174;-66
2023/10/08 12:30:57;;;;;;;9.27;4.45;;;27.40;99.90;;;;;;5031574;28;20181;-66
2023/10/08 12:33:26;;;;;;;13.65;7.72;;;27.30;99.90;;;;;;5023337;28;20248;-67
2023/10/08 12:35:55;;;;;;;9.88;5.75;;;27.20;99.90;;;;;;5019602;28;20182;-66
2023/10/08 12:38:27;;;;;;;10.90;5.97;;;27.00;99.90;;;;;;5034735;28;20223;-66
2023/10/08 12:41:08;;;;;;;10.10;5.22;;;26.70;99.90;;;;;;5035018;28;20182;-66
2023/10/08 12:43:38;;;;;;;8.07;4.60;;;26.50;99.90;;;;;;5035174;28;20220;-66
2023/10/08 12:46:04;;;;;;;10.32;4.57;;;26.20;99.90;;;;;;5035821;28;20247;-66
2023/10/08 12:48:32;;;;;;;7.80;4.53;;;25.90;99.90;;;;;;5031021;28;20257;-66
2023/10/08 12:50:58;;;;;;;7.82;4.13;;;25.70;99.90;;;;;;5031896;28;20171;-66
2023/10/08 12:53:33;;;;;;;14.80;9.38;;;25.50;99.90;;;;;;5034280;28;20182;-67
2023/10/08 12:56:05;;;;;;;9.15;6.28;;;25.30;99.90;;;;;;5035351;28;20185;-66
2023/10/08 12:58:48;;;;;;;9.95;6.38;;;25.10;99.90;;;;;;5018030;28;20333;-66
2023/10/08 13:01:17;;;;;;;7.60;4.72;;;24.90;99.90;;;;;;5031619;28;20590;-66
2023/10/08 13:03:49;;;;;;;9.93;5.07;;;24.80;99.90;;;;;;5034289;28;20201;-67
2023/10/08 13:06:51;;;;;;;8.45;4.97;;;24.60;99.90;;;;;;5031083;28;20276;-65
2023/10/08 13:09:12;;;;;;;9.52;4.85;;;24.50;99.90;;;;;;5026011;28;20227;-66
2023/10/08 13:11:39;;;;;;;8.13;4.82;;;24.40;99.90;;;;;;5035149;28;20178;-66
2023/10/08 13:14:05;;;;;;;8.40;4.63;;;24.30;99.90;;;;;;5034646;28;20189;-66
2023/10/08 13:16:37;;;;;;;7.68;4.70;;;24.10;99.90;;;;;;5034628;28;20185;-66
2023/10/08 13:19:08;;;;;;;8.98;5.00;;;24.10;99.90;;;;;;5034449;28;20182;-66
2023/10/08 13:21:36;;;;;;;9.52;5.05;;;24.00;99.90;;;;;;5035265;28;20173;-66
2023/10/08 13:24:05;;;;;;;10.00;5.68;;;23.90;99.90;;;;;;5018047;28;20179;-65
2023/10/08 13:26:37;;;;;;;8.88;5.05;;;23.80;99.90;;;;;;5023321;28;20194;-66
2023/10/08 13:29:05;;;;;;;8.85;5.35;;;23.80;99.90;;;;;;5035521;28;20146;-65
2023/10/08 13:31:36;;;;;;;8.95;4.80;;;23.70;99.90;;;;;;5030902;28;20174;-66
2023/10/08 13:34:08;;;;;;;10.20;5.53;;;23.70;99.90;;;;;;5014849;28;20202;-67
2023/10/08 13:36:34;;;;;;;11.10;7.30;;;23.70;99.90;;;;;;5029296;28;20232;-65
2023/10/08 13:39:00;;;;;;;11.68;7.20;;;23.80;99.90;;;;;;5031238;28;20166;-65
2023/10/08 13:41:29;;;;;;;14.60;6.40;;;23.80;99.90;;;;;;5018990;28;20179;-65
2023/10/08 13:44:05;;;;;;;12.25;6.10;;;23.80;99.90;;;;;;5018550;28;20181;-66
2023/10/08 13:46:35;;;;;;;12.73;5.47;;;23.80;99.90;;;;;;5034226;28;20270;-66
2023/10/08 13:49:01;;;;;;;10.55;5.85;;;23.80;99.90;;;;;;5031329;28;20174;-66
2023/10/08 13:51:27;;;;;;;10.60;5.20;;;23.80;99.90;;;;;;5031215;28;20182;-66
2023/10/08 13:53:59;;;;;;;12.15;5.80;;;23.80;99.90;;;;;;5015034;28;20171;-66
2023/10/08 13:56:26;;;;;;;9.43;5.82;;;23.80;99.90;;;;;;5026513;28;20189;-66
2023/10/08 13:59:03;;;;;;;11.50;5.93;;;23.80;99.90;;;;;;5030080;28;20198;-66
2023/10/08 14:01:28;;;;;;;10.93;5.45;;;23.70;99.90;;;;;;5033984;28;20216;-67
2023/10/08 14:04:04;;;;;;;8.38;5.57;;;23.70;99.90;;;;;;5032804;28;20209;-67
2023/10/08 14:06:29;;;;;;;9.02;4.95;;;23.70;99.90;;;;;;5014856;28;20206;-66